Uigi, Mongolia
Current Conditions -  °F | °C
As of 4:30 AM on Thursday 27 Nov 2014 (Local Time) from UNAA Reporting Station
Broken Clouds Broken Clouds  
Wind Chill:   Ceiling: 13000
Heat Index: 18°   Visibility: 6mi
Dew Point:   Wind: 11mph
Humidity: 58%   Direction: 190°S
Pressure: 29.77"   Gusts: NA
Location:  48.93°N, 89.93°E
Report Text: UNAA 262030Z 19005MPS 9999 SCT030CB BKN130 M08/M15 Q1008 NOSIGRMK QFE734 20090060
Loading
Personal Weather Stations






























Interactive Weather Map New forecast layout! Learn more

10-Day Weather Forecast

Advertisements
Track Severe Weather on mobile